Time;durP1;ratioP1;P1;durP2;ratioP2;P2;SDS_P1;SDS_P2;PMS_P1;PMS_P2;Temp;Humidity;BMP_temperature;BMP_pressure;BME280_temperature;BME280_humidity;BME280_pressure;Samples;Min_cycle;Max_cycle;Signal;HPM_P1;HPM_P2
2022/11/16 00:01:04;;;;;;;;;0.25;0.25;;;;;;;;5083940;27;62026;-86
2022/11/16 00:03:30;;;;;;;;;3.50;2.00;;;;;;;;5082756;28;61857;-87
2022/11/16 00:05:57;;;;;;;;;1.75;0.00;;;;;;;;5083449;27;62048;-86
2022/11/16 00:08:22;;;;;;;;;1.25;0.00;;;;;;;;5083803;27;61739;-86
2022/11/16 00:10:47;;;;;;;;;1.00;1.00;;;;;;;;5082693;28;61936;-86
2022/11/16 00:13:13;;;;;;;;;2.50;0.50;;;;;;;;5083897;27;61830;-86
2022/11/16 00:15:38;;;;;;;;;0.50;0.50;;;;;;;;5082369;28;62385;-86
2022/11/16 00:18:03;;;;;;;;;1.00;0.00;;;;;;;;5082680;27;61899;-87
2022/11/16 00:20:28;;;;;;;;;0.00;0.00;;;;;;;;5082161;28;61954;-86
2022/11/16 00:22:54;;;;;;;;;0.00;0.00;;;;;;;;5084455;27;61881;-86
2022/11/16 00:25:19;;;;;;;;;1.25;1.00;;;;;;;;5082274;27;63704;-86
2022/11/16 00:27:44;;;;;;;;;1.75;1.00;;;;;;;;5084280;27;61869;-86
2022/11/16 00:30:10;;;;;;;;;2.00;0.50;;;;;;;;5082677;28;61838;-86
2022/11/16 00:32:35;;;;;;;;;1.75;0.00;;;;;;;;5083902;28;61781;-86
2022/11/16 00:35:01;;;;;;;;;1.00;0.00;;;;;;;;5083502;28;61797;-86
2022/11/16 00:37:26;;;;;;;;;0.00;0.00;;;;;;;;5082281;27;61764;-86
2022/11/16 00:39:51;;;;;;;;;3.00;0.00;;;;;;;;5082670;28;61761;-86
2022/11/16 00:42:16;;;;;;;;;0.25;0.00;;;;;;;;5082803;27;62096;-85
2022/11/16 00:44:42;;;;;;;;;0.25;0.00;;;;;;;;5083411;28;62781;-86
2022/11/16 00:47:07;;;;;;;;;0.50;0.00;;;;;;;;5083542;27;61757;-86
2022/11/16 00:49:32;;;;;;;;;1.50;0.75;;;;;;;;5083616;27;62052;-86
2022/11/16 00:51:57;;;;;;;;;2.50;0.00;;;;;;;;5082164;28;62071;-86
2022/11/16 00:54:23;;;;;;;;;2.25;1.00;;;;;;;;5083168;27;61677;-86
2022/11/16 00:56:48;;;;;;;;;2.00;1.00;;;;;;;;5083721;28;61785;-86
2022/11/16 00:59:13;;;;;;;;;2.00;0.00;;;;;;;;5083795;27;61901;-86
2022/11/16 01:01:38;;;;;;;;;2.50;0.25;;;;;;;;5081878;27;61792;-86
2022/11/16 01:04:04;;;;;;;;;1.00;1.00;;;;;;;;5081944;27;62426;-86
2022/11/16 01:06:29;;;;;;;;;0.50;0.50;;;;;;;;5083029;27;61806;-86
2022/11/16 01:08:54;;;;;;;;;3.25;1.00;;;;;;;;5083402;28;62006;-83
2022/11/16 01:14:05;;;;;;;;;4.00;0.00;;;;;;;;5083078;28;61783;-86
2022/11/16 01:16:31;;;;;;;;;1.00;0.00;;;;;;;;5081611;27;61975;-86
2022/11/16 01:18:56;;;;;;;;;2.00;0.00;;;;;;;;5082772;28;62031;-86
2022/11/16 01:21:22;;;;;;;;;0.00;0.00;;;;;;;;5081653;27;61907;-86
2022/11/16 01:23:47;;;;;;;;;1.00;1.00;;;;;;;;5082937;28;61827;-87
2022/11/16 01:26:13;;;;;;;;;0.00;0.00;;;;;;;;5082120;27;61871;-86
2022/11/16 01:28:38;;;;;;;;;1.50;1.00;;;;;;;;5081606;28;62074;-87
2022/11/16 01:31:03;;;;;;;;;0.50;0.25;;;;;;;;5083113;27;61772;-86
2022/11/16 01:33:29;;;;;;;;;3.25;1.00;;;;;;;;5082377;27;61890;-86
2022/11/16 01:35:54;;;;;;;;;0.00;0.00;;;;;;;;5081353;27;61845;-87
2022/11/16 01:38:19;;;;;;;;;0.00;0.00;;;;;;;;5081227;28;61879;-86
2022/11/16 01:40:45;;;;;;;;;0.50;0.50;;;;;;;;5083178;27;61826;-86
2022/11/16 01:43:22;;;;;;;;;2.00;0.25;;;;;;;;5082085;28;63012;-86
2022/11/16 01:45:48;;;;;;;;;1.25;1.00;;;;;;;;5083169;27;62072;-86
2022/11/16 01:48:16;;;;;;;;;0.75;0.75;;;;;;;;5083147;27;61860;-86
2022/11/16 01:50:42;;;;;;;;;1.00;0.00;;;;;;;;5082104;27;61947;-86
2022/11/16 01:53:09;;;;;;;;;0.50;0.00;;;;;;;;5080844;28;62727;-86
2022/11/16 01:55:36;;;;;;;;;1.50;0.00;;;;;;;;5081499;28;61864;-86
2022/11/16 01:58:01;;;;;;;;;0.00;0.00;;;;;;;;5082726;27;61857;-86
2022/11/16 02:00:27;;;;;;;;;0.75;0.50;;;;;;;;5082660;27;61899;-86
2022/11/16 02:02:52;;;;;;;;;1.50;0.00;;;;;;;;5082363;27;63501;-86
2022/11/16 02:05:20;;;;;;;;;0.00;0.00;;;;;;;;5081576;28;61971;-86
2022/11/16 02:11:06;;;;;;;;;2.50;0.50;;;;;;;;5082881;28;61882;-87
2022/11/16 02:13:31;;;;;;;;;3.75;1.00;;;;;;;;5080265;28;64662;-86
2022/11/16 02:16:03;;;;;;;;;0.75;0.75;;;;;;;;5082769;27;61988;-86
2022/11/16 02:18:34;;;;;;;;;1.50;0.00;;;;;;;;5081759;27;61727;-86
2022/11/16 02:20:59;;;;;;;;;1.25;0.50;;;;;;;;5082572;27;62084;-86
2022/11/16 02:23:37;;;;;;;;;0.00;0.00;;;;;;;;5080575;27;61961;-86
2022/11/16 02:26:21;;;;;;;;;0.00;0.00;;;;;;;;5082697;28;61906;-86
2022/11/16 02:28:49;;;;;;;;;1.00;0.00;;;;;;;;5081965;28;61908;-86
2022/11/16 02:31:16;;;;;;;;;1.00;1.00;;;;;;;;5081015;27;62324;-86
2022/11/16 02:33:44;;;;;;;;;1.25;0.00;;;;;;;;5081747;28;62010;-86
2022/11/16 02:36:11;;;;;;;;;5.00;1.00;;;;;;;;5081809;28;61828;-86
2022/11/16 02:38:39;;;;;;;;;2.00;1.00;;;;;;;;5082444;28;61847;-87
2022/11/16 02:41:07;;;;;;;;;1.00;0.00;;;;;;;;5082468;28;61808;-85
2022/11/16 02:43:35;;;;;;;;;0.25;0.00;;;;;;;;5081300;28;62128;-86
2022/11/16 02:46:07;;;;;;;;;0.00;0.00;;;;;;;;5082474;28;61824;-86
2022/11/16 02:48:34;;;;;;;;;2.00;0.50;;;;;;;;5080422;27;61747;-87
2022/11/16 02:51:01;;;;;;;;;1.00;0.00;;;;;;;;5082674;28;62057;-86
2022/11/16 02:53:26;;;;;;;;;2.00;1.25;;;;;;;;5085161;28;63538;-87
2022/11/16 02:55:52;;;;;;;;;1.50;1.00;;;;;;;;5085287;27;61850;-79
2022/11/16 02:58:19;;;;;;;;;0.00;0.00;;;;;;;;5084617;27;61888;-86
2022/11/16 03:00:50;;;;;;;;;1.75;0.50;;;;;;;;5085672;28;61725;-88
2022/11/16 03:03:31;;;;;;;;;0.75;0.75;;;;;;;;5084882;27;61999;-85
2022/11/16 03:06:03;;;;;;;;;4.25;2.00;;;;;;;;5085213;28;61836;-86
2022/11/16 03:08:30;;;;;;;;;1.00;0.00;;;;;;;;5084134;27;61768;-86
2022/11/16 03:13:43;;;;;;;;;1.00;0.00;;;;;;;;5084951;28;61774;-86
2022/11/16 03:16:13;;;;;;;;;0.00;0.00;;;;;;;;5085434;28;61920;-86
2022/11/16 03:18:39;;;;;;;;;0.75;0.50;;;;;;;;5084602;27;61924;-86
2022/11/16 03:21:09;;;;;;;;;0.00;0.00;;;;;;;;5083641;27;62105;-86
2022/11/16 03:23:34;;;;;;;;;0.50;0.00;;;;;;;;5083369;27;61909;-86
2022/11/16 03:26:04;;;;;;;;;0.75;0.00;;;;;;;;5084717;28;62099;-86
2022/11/16 03:28:35;;;;;;;;;0.75;0.00;;;;;;;;5083708;27;61837;-86
2022/11/16 03:31:05;;;;;;;;;0.00;0.00;;;;;;;;5083822;27;61946;-86
2022/11/16 03:33:33;;;;;;;;;1.00;0.00;;;;;;;;5084437;27;61749;-86
2022/11/16 03:36:37;;;;;;;;;1.00;0.00;;;;;;;;5083014;27;61920;-86
2022/11/16 03:39:17;;;;;;;;;0.00;0.00;;;;;;;;5022266;28;61785;-86
2022/11/16 03:41:44;;;;;;;;;2.75;0.00;;;;;;;;5005027;28;61885;-86
2022/11/16 03:44:11;;;;;;;;;0.00;0.00;;;;;;;;5004753;28;63583;-86
2022/11/16 03:46:37;;;;;;;;;0.00;0.00;;;;;;;;5022091;28;61865;-86
2022/11/16 03:49:02;;;;;;;;;0.50;0.00;;;;;;;;5004444;28;62106;-88
2022/11/16 03:51:27;;;;;;;;;0.00;0.00;;;;;;;;5004889;28;62200;-86
2022/11/16 03:53:53;;;;;;;;;2.00;0.00;;;;;;;;5004255;28;63408;-84
2022/11/16 03:56:19;;;;;;;;;1.00;1.00;;;;;;;;5021811;28;61938;-86
2022/11/16 03:58:44;;;;;;;;;2.00;0.00;;;;;;;;5005302;28;61932;-86
2022/11/16 04:01:09;;;;;;;;;0.00;0.00;;;;;;;;5021233;28;62220;-86
2022/11/16 04:03:34;;;;;;;;;0.00;0.00;;;;;;;;5021317;28;63032;-86
2022/11/16 04:25:33;;;;;;;;;0.00;0.00;;;;;;;;5083506;28;61961;-86
2022/11/16 04:28:15;;;;;;;;;0.00;0.00;;;;;;;;5084129;28;61670;-86
2022/11/16 04:38:58;;;;;;;;;0.00;0.00;;;;;;;;5083482;27;61699;-86
2022/11/16 04:44:07;;;;;;;;;3.50;0.00;;;;;;;;5084128;27;62051;-86
2022/11/16 04:47:32;;;;;;;;;1.00;0.00;;;;;;;;5083298;28;62007;-86
2022/11/16 04:49:27;;;;;;;;;0.00;0.00;;;;;;;;5072974;27;61927;-86
2022/11/16 04:51:52;;;;;;;;;0.00;0.00;;;;;;;;5081217;27;62087;-83
2022/11/16 04:54:17;;;;;;;;;0.50;0.00;;;;;;;;5083778;27;61672;-86
2022/11/16 04:56:43;;;;;;;;;0.00;0.00;;;;;;;;5081679;27;62854;-86
2022/11/16 04:59:08;;;;;;;;;2.00;0.00;;;;;;;;5083273;27;62089;-86
2022/11/16 05:04:17;;;;;;;;;0.00;0.00;;;;;;;;5083546;28;62096;-86
2022/11/16 05:06:42;;;;;;;;;0.00;0.00;;;;;;;;5082293;28;61894;-86
2022/11/16 05:09:08;;;;;;;;;0.00;0.00;;;;;;;;5081478;27;61922;-86
2022/11/16 05:11:33;;;;;;;;;0.00;0.00;;;;;;;;5083584;27;61813;-86
2022/11/16 05:13:58;;;;;;;;;0.00;0.00;;;;;;;;5082748;28;62009;-86
2022/11/16 05:16:23;;;;;;;;;0.00;0.00;;;;;;;;5081014;27;64334;-86
2022/11/16 05:20:59;;;;;;;;;1.00;0.00;;;;;;;;5082962;27;61780;-86
2022/11/16 05:21:34;;;;;;;;;0.00;0.00;;;;;;;;5082433;27;62046;-86
2022/11/16 05:26:43;;;;;;;;;1.00;0.00;;;;;;;;5082787;28;62377;-86
2022/11/16 05:29:08;;;;;;;;;0.00;0.00;;;;;;;;5082904;27;61678;-86
2022/11/16 05:31:34;;;;;;;;;2.25;0.50;;;;;;;;5083153;28;62018;-86
2022/11/16 05:33:59;;;;;;;;;0.00;0.00;;;;;;;;5081458;27;61804;-86
2022/11/16 05:36:24;;;;;;;;;0.00;0.00;;;;;;;;5081402;28;62499;-86
2022/11/16 05:38:49;;;;;;;;;0.00;0.00;;;;;;;;5081871;27;62119;-86
2022/11/16 05:41:15;;;;;;;;;2.00;0.50;;;;;;;;5081433;28;62335;-86
2022/11/16 05:43:40;;;;;;;;;0.75;0.00;;;;;;;;5083199;27;61746;-86
2022/11/16 05:46:06;;;;;;;;;2.00;2.00;;;;;;;;5080766;27;63264;-86
2022/11/16 05:48:33;;;;;;;;;3.75;0.00;;;;;;;;5080697;27;61955;-86
2022/11/16 05:50:58;;;;;;;;;0.00;0.00;;;;;;;;5082015;28;61851;-86
2022/11/16 05:53:24;;;;;;;;;1.25;0.00;;;;;;;;5082856;28;61751;-87
2022/11/16 05:55:49;;;;;;;;;0.50;0.00;;;;;;;;5082306;27;62038;-86
2022/11/16 05:58:14;;;;;;;;;0.00;0.00;;;;;;;;5081387;27;62162;-86
2022/11/16 06:00:40;;;;;;;;;2.00;0.00;;;;;;;;5082551;27;61874;-85
2022/11/16 06:03:05;;;;;;;;;0.50;0.00;;;;;;;;5083030;27;61886;-86
2022/11/16 06:05:32;;;;;;;;;0.00;0.00;;;;;;;;5081825;28;61667;-86
2022/11/16 06:07:58;;;;;;;;;1.25;0.00;;;;;;;;5080769;27;61890;-86
2022/11/16 06:10:23;;;;;;;;;0.50;0.50;;;;;;;;5081336;27;62030;-86
2022/11/16 06:12:48;;;;;;;;;0.75;0.75;;;;;;;;5081703;27;61935;-86
2022/11/16 06:15:13;;;;;;;;;0.00;0.00;;;;;;;;5080392;28;61955;-85
2022/11/16 06:17:39;;;;;;;;;3.00;1.00;;;;;;;;5082713;27;61716;-85
2022/11/16 06:20:04;;;;;;;;;1.00;0.00;;;;;;;;5081604;28;61962;-82
2022/11/16 06:22:30;;;;;;;;;1.00;1.00;;;;;;;;5082923;27;61942;-85
2022/11/16 06:24:56;;;;;;;;;1.00;0.00;;;;;;;;5084284;28;61882;-82
2022/11/16 06:27:21;;;;;;;;;0.00;0.00;;;;;;;;5084729;27;61736;-82
2022/11/16 06:29:47;;;;;;;;;0.00;0.00;;;;;;;;5086065;27;61772;-79
2022/11/16 06:32:13;;;;;;;;;1.00;0.00;;;;;;;;5086113;28;61989;-80
2022/11/16 06:34:38;;;;;;;;;0.00;0.00;;;;;;;;5085059;27;61747;-83
2022/11/16 06:37:04;;;;;;;;;0.00;0.00;;;;;;;;5084378;27;62091;-83
2022/11/16 06:39:29;;;;;;;;;2.00;0.00;;;;;;;;5085953;27;62088;-83
2022/11/16 06:41:55;;;;;;;;;0.75;0.00;;;;;;;;5082777;27;61872;-82
2022/11/16 06:44:20;;;;;;;;;0.00;0.00;;;;;;;;5082148;28;63139;-80
2022/11/16 06:46:45;;;;;;;;;0.25;0.25;;;;;;;;5084865;27;61999;-82
2022/11/16 06:49:10;;;;;;;;;1.00;1.00;;;;;;;;5084581;27;61972;-82
2022/11/16 06:51:36;;;;;;;;;0.00;0.00;;;;;;;;5083983;28;62173;-81
2022/11/16 06:54:01;;;;;;;;;3.00;0.00;;;;;;;;5084363;27;61824;-80
2022/11/16 06:56:26;;;;;;;;;0.00;0.00;;;;;;;;5083873;27;61759;-84
2022/11/16 06:58:54;;;;;;;;;1.25;0.00;;;;;;;;5085595;27;61866;-80
2022/11/16 07:01:19;;;;;;;;;1.00;0.00;;;;;;;;5085705;27;62112;-81
2022/11/16 07:03:44;;;;;;;;;1.50;0.00;;;;;;;;5084391;28;62017;-82
2022/11/16 07:06:10;;;;;;;;;0.25;0.25;;;;;;;;5084307;27;62050;-85
2022/11/16 07:08:36;;;;;;;;;2.00;0.00;;;;;;;;5083146;28;62037;-81
2022/11/16 07:11:03;;;;;;;;;0.00;0.00;;;;;;;;5077765;28;61959;-81
2022/11/16 07:13:30;;;;;;;;;2.50;1.00;;;;;;;;5082711;28;61928;-81
2022/11/16 07:15:59;;;;;;;;;0.00;0.00;;;;;;;;5083402;28;61960;-80
2022/11/16 07:18:24;;;;;;;;;0.50;0.50;;;;;;;;5084249;27;62185;-80
2022/11/16 07:20:49;;;;;;;;;1.00;1.00;;;;;;;;5083834;28;61778;-80
2022/11/16 07:23:15;;;;;;;;;0.75;0.75;;;;;;;;5083141;27;61921;-81
2022/11/16 07:25:40;;;;;;;;;0.00;0.00;;;;;;;;5080319;27;63376;-82
2022/11/16 07:28:05;;;;;;;;;0.50;0.50;;;;;;;;5082949;28;61819;-80
2022/11/16 07:30:31;;;;;;;;;0.00;0.00;;;;;;;;5083330;27;62013;-79
2022/11/16 07:32:58;;;;;;;;;0.25;0.25;;;;;;;;5082287;28;62900;-79
2022/11/16 07:35:24;;;;;;;;;1.00;1.00;;;;;;;;5082657;28;61869;-81
2022/11/16 07:37:49;;;;;;;;;1.00;1.00;;;;;;;;5081087;27;61986;-80
2022/11/16 07:40:14;;;;;;;;;2.50;0.25;;;;;;;;5083840;28;61930;-80
2022/11/16 07:42:40;;;;;;;;;0.50;0.00;;;;;;;;5082245;27;62416;-82
2022/11/16 07:45:06;;;;;;;;;1.00;1.00;;;;;;;;5064610;28;61748;-81
2022/11/16 07:47:34;;;;;;;;;2.50;2.50;;;;;;;;5063981;28;61663;-80
2022/11/16 07:49:59;;;;;;;;;1.50;1.00;;;;;;;;5078870;28;62313;-80
2022/11/16 07:52:24;;;;;;;;;3.00;0.00;;;;;;;;5082638;27;61717;-80
2022/11/16 07:54:50;;;;;;;;;0.25;0.25;;;;;;;;5083184;27;62150;-80
2022/11/16 07:57:15;;;;;;;;;2.00;2.00;;;;;;;;5083383;27;62074;-81
2022/11/16 07:59:40;;;;;;;;;0.75;0.75;;;;;;;;5082836;27;61920;-80
2022/11/16 08:02:05;;;;;;;;;2.25;1.00;;;;;;;;5082096;27;61855;-83
2022/11/16 08:04:31;;;;;;;;;2.00;2.00;;;;;;;;5083746;27;62058;-81
2022/11/16 08:06:56;;;;;;;;;4.00;1.00;;;;;;;;5082060;27;62057;-80
2022/11/16 08:09:21;;;;;;;;;3.75;0.00;;;;;;;;5084022;27;61873;-81
2022/11/16 08:11:47;;;;;;;;;1.75;1.00;;;;;;;;5083305;27;62924;-80
2022/11/16 08:14:12;;;;;;;;;2.00;2.00;;;;;;;;5083550;27;62003;-81
2022/11/16 08:16:38;;;;;;;;;2.50;0.00;;;;;;;;5083807;28;61881;-80
2022/11/16 08:19:03;;;;;;;;;2.00;2.00;;;;;;;;5082237;27;61967;-80
2022/11/16 08:21:28;;;;;;;;;0.00;0.00;;;;;;;;5081760;28;62629;-81
2022/11/16 08:23:54;;;;;;;;;1.00;1.00;;;;;;;;5084131;28;62014;-81
2022/11/16 08:26:20;;;;;;;;;1.50;0.50;;;;;;;;5082935;27;61969;-80
2022/11/16 08:28:47;;;;;;;;;3.00;1.00;;;;;;;;5084114;27;61933;-80
2022/11/16 08:31:14;;;;;;;;;4.25;1.00;;;;;;;;5083250;28;61806;-80
2022/11/16 08:33:39;;;;;;;;;0.50;0.25;;;;;;;;5082685;27;62026;-81
2022/11/16 08:36:05;;;;;;;;;3.25;0.00;;;;;;;;5082391;27;61898;-80
2022/11/16 08:38:31;;;;;;;;;0.00;0.00;;;;;;;;5083027;28;62089;-80
2022/11/16 08:40:56;;;;;;;;;1.00;1.00;;;;;;;;5083215;27;62743;-81
2022/11/16 08:43:21;;;;;;;;;0.50;0.25;;;;;;;;5078299;27;62011;-83
2022/11/16 08:45:47;;;;;;;;;0.00;0.00;;;;;;;;5063203;28;62535;-84
2022/11/16 08:48:12;;;;;;;;;0.75;0.00;;;;;;;;5062368;28;62086;-83
2022/11/16 08:50:38;;;;;;;;;1.25;1.00;;;;;;;;5078559;27;61740;-83
2022/11/16 08:53:03;;;;;;;;;3.75;1.00;;;;;;;;5081801;28;61978;-84
2022/11/16 08:55:28;;;;;;;;;4.00;0.50;;;;;;;;5082464;27;62010;-84
2022/11/16 08:57:54;;;;;;;;;4.00;2.25;;;;;;;;5083507;27;61807;-83
2022/11/16 09:00:19;;;;;;;;;2.50;1.00;;;;;;;;5082146;28;61962;-85
2022/11/16 09:02:45;;;;;;;;;0.25;0.25;;;;;;;;5082970;27;62283;-82
2022/11/16 09:05:10;;;;;;;;;2.25;1.00;;;;;;;;5083077;28;62015;-83
2022/11/16 09:07:36;;;;;;;;;2.50;0.25;;;;;;;;5081824;27;61973;-83
2022/11/16 09:10:02;;;;;;;;;0.50;0.00;;;;;;;;5082419;28;62596;-83
2022/11/16 09:12:27;;;;;;;;;2.50;1.50;;;;;;;;5083476;27;61776;-83
2022/11/16 09:14:52;;;;;;;;;0.25;0.25;;;;;;;;5081626;27;62004;-83
2022/11/16 09:17:18;;;;;;;;;1.50;0.50;;;;;;;;5083779;27;61694;-81
2022/11/16 09:19:43;;;;;;;;;0.00;0.00;;;;;;;;5081947;27;62836;-81
2022/11/16 09:22:08;;;;;;;;;0.50;0.50;;;;;;;;5082818;28;61857;-81
2022/11/16 09:24:34;;;;;;;;;1.50;0.25;;;;;;;;5081964;28;62399;-83
2022/11/16 09:27:00;;;;;;;;;1.00;1.00;;;;;;;;5081999;28;61901;-83
2022/11/16 09:29:26;;;;;;;;;3.25;1.00;;;;;;;;5080370;27;63487;-81
2022/11/16 09:31:51;;;;;;;;;3.00;1.50;;;;;;;;5082123;27;62167;-84
2022/11/16 09:34:17;;;;;;;;;2.00;0.25;;;;;;;;5080580;28;61964;-83
2022/11/16 09:36:42;;;;;;;;;3.25;0.25;;;;;;;;5082724;28;61690;-82
2022/11/16 09:39:07;;;;;;;;;0.00;0.00;;;;;;;;5080727;27;63559;-83
2022/11/16 09:41:51;;;;;;;;;0.00;0.00;;;;;;;;5082072;28;61895;-82
2022/11/16 09:44:25;;;;;;;;;1.75;1.75;;;;;;;;5077631;27;61870;-82
2022/11/16 09:46:54;;;;;;;;;1.00;0.00;;;;;;;;5083320;28;61962;-82
2022/11/16 09:49:22;;;;;;;;;0.25;0.25;;;;;;;;5082017;28;61861;-82
2022/11/16 09:52:00;;;;;;;;;1.00;0.00;;;;;;;;5080557;27;61955;-82
2022/11/16 09:54:28;;;;;;;;;3.00;0.00;;;;;;;;5081309;27;61872;-82
2022/11/16 09:56:57;;;;;;;;;2.25;1.25;;;;;;;;5081113;27;61902;-81
2022/11/16 09:59:28;;;;;;;;;0.00;0.00;;;;;;;;5080680;28;63059;-82
2022/11/16 10:02:00;;;;;;;;;0.00;0.00;;;;;;;;5081164;28;61962;-81
2022/11/16 10:04:37;;;;;;;;;0.00;0.00;;;;;;;;5082223;27;61759;-84
2022/11/16 10:07:12;;;;;;;;;1.25;0.00;;;;;;;;5080387;28;61988;-82
2022/11/16 10:09:38;;;;;;;;;3.25;0.00;;;;;;;;5080800;27;62084;-83
2022/11/16 10:12:07;;;;;;;;;0.00;0.00;;;;;;;;5080240;27;61989;-83
2022/11/16 10:14:42;;;;;;;;;2.25;1.25;;;;;;;;5082712;28;62114;-83
2022/11/16 10:17:23;;;;;;;;;0.50;0.00;;;;;;;;5082493;27;61800;-83
2022/11/16 10:19:48;;;;;;;;;1.00;0.00;;;;;;;;5079409;27;63870;-82
2022/11/16 10:22:22;;;;;;;;;3.75;1.00;;;;;;;;5081827;28;61957;-85
2022/11/16 10:24:58;;;;;;;;;0.00;0.00;;;;;;;;5082173;28;62158;-85
2022/11/16 10:27:43;;;;;;;;;1.00;1.00;;;;;;;;5081416;27;61823;-84
2022/11/16 10:30:14;;;;;;;;;1.25;0.25;;;;;;;;5080815;27;63055;-82
2022/11/16 10:32:53;;;;;;;;;2.25;0.00;;;;;;;;5081840;28;61618;-83
2022/11/16 10:35:38;;;;;;;;;1.75;0.75;;;;;;;;5073843;27;62306;-82
2022/11/16 10:38:10;;;;;;;;;0.00;0.00;;;;;;;;5077335;27;62238;-81
2022/11/16 10:40:36;;;;;;;;;0.25;0.25;;;;;;;;5081091;28;61717;-85
2022/11/16 10:43:05;;;;;;;;;2.00;0.75;;;;;;;;5078067;27;62003;-84
2022/11/16 10:45:34;;;;;;;;;1.25;1.00;;;;;;;;5080359;28;62041;-85
2022/11/16 10:48:16;;;;;;;;;0.75;0.75;;;;;;;;5081588;27;61809;-84
2022/11/16 10:50:46;;;;;;;;;1.50;0.75;;;;;;;;5078978;27;61852;-85
2022/11/16 10:53:13;;;;;;;;;1.00;1.00;;;;;;;;5076544;28;61847;-85
2022/11/16 10:55:38;;;;;;;;;0.50;0.00;;;;;;;;5080063;28;62101;-85
2022/11/16 10:58:04;;;;;;;;;1.00;1.00;;;;;;;;5081771;28;61957;-85
2022/11/16 11:00:33;;;;;;;;;1.00;1.00;;;;;;;;5079704;28;61957;-85
2022/11/16 11:02:58;;;;;;;;;1.75;1.00;;;;;;;;5081234;27;61839;-85
2022/11/16 11:05:25;;;;;;;;;3.50;0.50;;;;;;;;5080778;28;61734;-85
2022/11/16 11:08:02;;;;;;;;;1.25;0.75;;;;;;;;5080915;28;62273;-85
2022/11/16 11:10:32;;;;;;;;;2.00;1.00;;;;;;;;5076003;28;64470;-86
2022/11/16 11:13:00;;;;;;;;;0.00;0.00;;;;;;;;5083863;27;61810;-84
2022/11/16 11:15:26;;;;;;;;;4.25;1.00;;;;;;;;5084657;27;61817;-85
2022/11/16 11:18:09;;;;;;;;;2.00;0.00;;;;;;;;5086022;27;61920;-85
2022/11/16 11:20:35;;;;;;;;;1.75;1.00;;;;;;;;5083795;27;62229;-85
2022/11/16 11:23:02;;;;;;;;;0.50;0.50;;;;;;;;5084518;28;62042;-84
2022/11/16 11:25:35;;;;;;;;;2.50;1.00;;;;;;;;5084463;27;61880;-86
2022/11/16 11:28:21;;;;;;;;;1.50;0.75;;;;;;;;5084925;28;61700;-85
2022/11/16 11:31:02;;;;;;;;;0.25;0.00;;;;;;;;5082427;27;63460;-85
2022/11/16 11:33:29;;;;;;;;;2.00;1.00;;;;;;;;5083705;27;61757;-84
2022/11/16 11:35:56;;;;;;;;;3.00;1.50;;;;;;;;5083280;28;62039;-82
2022/11/16 11:38:21;;;;;;;;;1.00;1.00;;;;;;;;5082069;27;62194;-82
2022/11/16 11:40:58;;;;;;;;;0.00;0.00;;;;;;;;5084548;28;61853;-83
2022/11/16 11:43:24;;;;;;;;;1.50;0.50;;;;;;;;5076393;27;62165;-80
2022/11/16 11:46:04;;;;;;;;;0.00;0.00;;;;;;;;5063165;28;61968;-84
2022/11/16 11:48:32;;;;;;;;;1.50;1.25;;;;;;;;5063739;28;62202;-81
2022/11/16 11:51:01;;;;;;;;;0.00;0.00;;;;;;;;5071885;28;61976;-80
2022/11/16 11:53:36;;;;;;;;;0.50;0.50;;;;;;;;5083815;28;62097;-79
2022/11/16 11:56:01;;;;;;;;;1.25;0.25;;;;;;;;5083514;28;61820;-81
2022/11/16 11:58:31;;;;;;;;;0.50;0.50;;;;;;;;5084504;28;61839;-82
2022/11/16 12:01:16;;;;;;;;;1.50;0.00;;;;;;;;5083667;28;62946;-81
2022/11/16 12:04:00;;;;;;;;;2.00;1.00;;;;;;;;5079188;28;62397;-81
2022/11/16 12:06:25;;;;;;;;;2.00;0.75;;;;;;;;5083460;28;61955;-81
2022/11/16 12:08:50;;;;;;;;;1.00;1.00;;;;;;;;5084258;28;61856;-80
2022/11/16 12:11:23;;;;;;;;;2.25;0.25;;;;;;;;5083798;28;61919;-82
2022/11/16 12:14:18;;;;;;;;;0.25;0.25;;;;;;;;5083857;27;61721;-82
2022/11/16 12:16:56;;;;;;;;;2.00;2.00;;;;;;;;5073359;27;61961;-82
2022/11/16 12:19:24;;;;;;;;;2.00;1.00;;;;;;;;5077297;27;62081;-83
2022/11/16 12:21:58;;;;;;;;;1.50;1.00;;;;;;;;5079575;27;63212;-81
2022/11/16 12:24:30;;;;;;;;;2.00;1.00;;;;;;;;5081452;28;61796;-83
2022/11/16 12:26:58;;;;;;;;;1.50;1.00;;;;;;;;5081780;27;61907;-82
2022/11/16 12:29:42;;;;;;;;;2.50;2.00;;;;;;;;5082497;27;62082;-79
2022/11/16 12:32:24;;;;;;;;;0.25;0.25;;;;;;;;5082122;28;62023;-79
2022/11/16 12:34:59;;;;;;;;;2.00;0.75;;;;;;;;5081352;27;61971;-79
2022/11/16 12:37:24;;;;;;;;;2.00;0.00;;;;;;;;5080807;28;61930;-78
2022/11/16 12:40:08;;;;;;;;;0.00;0.00;;;;;;;;5082621;27;61912;-80
2022/11/16 12:42:48;;;;;;;;;2.25;1.00;;;;;;;;5081803;27;62119;-79
2022/11/16 12:45:32;;;;;;;;;2.00;0.75;;;;;;;;5062184;28;61907;-81
2022/11/16 12:48:03;;;;;;;;;2.00;1.00;;;;;;;;5074827;27;61921;-82
2022/11/16 12:50:47;;;;;;;;;3.00;1.00;;;;;;;;5082402;28;61861;-81
2022/11/16 12:53:24;;;;;;;;;0.00;0.00;;;;;;;;5083107;27;61927;-82
2022/11/16 12:56:08;;;;;;;;;1.00;1.00;;;;;;;;5081699;28;61733;-81
2022/11/16 12:58:36;;;;;;;;;1.25;1.00;;;;;;;;5081222;27;61887;-80
2022/11/16 13:01:10;;;;;;;;;1.00;1.00;;;;;;;;5080797;28;61847;-81
2022/11/16 13:03:41;;;;;;;;;5.00;1.00;;;;;;;;5080677;28;62000;-80
2022/11/16 13:06:13;;;;;;;;;1.00;1.00;;;;;;;;5081401;27;61843;-80
2022/11/16 13:08:41;;;;;;;;;2.00;0.50;;;;;;;;5081420;28;61966;-80
2022/11/16 13:11:12;;;;;;;;;0.25;0.25;;;;;;;;5080827;28;61958;-81
2022/11/16 13:13:38;;;;;;;;;4.25;1.50;;;;;;;;5081398;28;61986;-81
2022/11/16 13:16:04;;;;;;;;;1.50;0.75;;;;;;;;5082186;28;61784;-81
2022/11/16 13:18:31;;;;;;;;;0.75;0.50;;;;;;;;5081133;27;61859;-78
2022/11/16 13:21:23;;;;;;;;;2.25;1.00;;;;;;;;5080303;27;62040;-81
2022/11/16 13:23:53;;;;;;;;;4.25;1.00;;;;;;;;5075860;27;62083;-81
2022/11/16 13:26:18;;;;;;;;;7.25;2.00;;;;;;;;5081950;28;61839;-81
2022/11/16 13:29:03;;;;;;;;;0.75;0.25;;;;;;;;5081184;27;61839;-81
2022/11/16 13:31:38;;;;;;;;;1.50;0.50;;;;;;;;5080678;28;61654;-81
2022/11/16 13:34:13;;;;;;;;;1.75;1.00;;;;;;;;5075099;27;61910;-81
2022/11/16 13:36:42;;;;;;;;;2.00;1.25;;;;;;;;5081390;28;61931;-81
2022/11/16 13:39:08;;;;;;;;;3.50;2.50;;;;;;;;5080359;27;61974;-81
2022/11/16 13:41:35;;;;;;;;;5.75;2.00;;;;;;;;5081661;28;61844;-81
2022/11/16 13:44:03;;;;;;;;;2.00;2.00;;;;;;;;5076737;27;61933;-79
2022/11/16 13:46:44;;;;;;;;;0.00;0.00;;;;;;;;5080144;28;61966;-81
2022/11/16 13:49:30;;;;;;;;;1.00;1.00;;;;;;;;5078703;27;61987;-81
2022/11/16 13:51:58;;;;;;;;;5.00;3.00;;;;;;;;5082559;27;62290;-81
2022/11/16 13:54:29;;;;;;;;;1.50;1.50;;;;;;;;5082497;28;61749;-81
2022/11/16 13:56:55;;;;;;;;;0.00;0.00;;;;;;;;5081167;27;61818;-81
2022/11/16 13:59:28;;;;;;;;;2.25;1.00;;;;;;;;5082744;28;61799;-81
2022/11/16 14:02:23;;;;;;;;;2.25;1.50;;;;;;;;5082586;28;61920;-81
2022/11/16 14:04:57;;;;;;;;;2.25;1.75;;;;;;;;5081874;27;62486;-81
2022/11/16 14:07:35;;;;;;;;;1.00;1.00;;;;;;;;5080967;28;61851;-81
2022/11/16 14:10:01;;;;;;;;;2.75;1.00;;;;;;;;5081106;27;62206;-82
2022/11/16 14:12:45;;;;;;;;;1.00;1.00;;;;;;;;5081505;27;61830;-81
2022/11/16 14:15:16;;;;;;;;;1.50;1.00;;;;;;;;5079042;28;63534;-79
2022/11/16 14:17:52;;;;;;;;;1.75;0.25;;;;;;;;5079732;27;61852;-79
2022/11/16 14:20:29;;;;;;;;;1.00;0.25;;;;;;;;5077270;27;62076;-80
2022/11/16 14:23:10;;;;;;;;;1.50;1.00;;;;;;;;5081024;28;62062;-81
2022/11/16 14:25:51;;;;;;;;;2.00;2.00;;;;;;;;5080706;28;62902;-80
2022/11/16 14:28:21;;;;;;;;;1.00;0.00;;;;;;;;5081271;28;61762;-79
2022/11/16 14:30:52;;;;;;;;;1.00;0.00;;;;;;;;5078832;28;61809;-80
2022/11/16 14:33:28;;;;;;;;;1.00;1.00;;;;;;;;5077177;27;62148;-80
2022/11/16 14:35:53;;;;;;;;;7.50;2.00;;;;;;;;5079878;27;61949;-81
2022/11/16 14:38:27;;;;;;;;;4.00;1.50;;;;;;;;5081220;28;62066;-80
2022/11/16 14:40:54;;;;;;;;;1.00;1.00;;;;;;;;5082365;28;61602;-80
2022/11/16 14:43:31;;;;;;;;;5.75;1.25;;;;;;;;5075469;27;62072;-80
2022/11/16 14:45:59;;;;;;;;;5.75;1.00;;;;;;;;5072971;27;61898;-80
2022/11/16 14:48:25;;;;;;;;;2.50;2.00;;;;;;;;5083624;27;61894;-80
2022/11/16 14:51:09;;;;;;;;;2.00;2.00;;;;;;;;5082914;28;62020;-80
2022/11/16 14:53:37;;;;;;;;;6.50;4.00;;;;;;;;5083090;28;61709;-80
2022/11/16 14:56:09;;;;;;;;;2.75;1.25;;;;;;;;5084626;28;61997;-81
2022/11/16 14:58:35;;;;;;;;;2.00;1.00;;;;;;;;5085317;27;61843;-80
2022/11/16 15:01:11;;;;;;;;;3.00;1.50;;;;;;;;5083894;27;62348;-80
2022/11/16 15:03:40;;;;;;;;;6.50;2.00;;;;;;;;5083853;27;61787;-80
2022/11/16 15:06:06;;;;;;;;;3.50;2.00;;;;;;;;5084334;27;62859;-80
2022/11/16 15:08:33;;;;;;;;;1.25;1.25;;;;;;;;5084857;27;61718;-80
2022/11/16 15:10:59;;;;;;;;;1.50;1.25;;;;;;;;5084188;27;61979;-80
2022/11/16 15:13:25;;;;;;;;;4.25;1.75;;;;;;;;5084059;27;61882;-80
2022/11/16 15:16:13;;;;;;;;;4.00;3.00;;;;;;;;5084245;28;62794;-79
2022/11/16 15:18:38;;;;;;;;;4.25;2.50;;;;;;;;5084703;27;61886;-80
2022/11/16 15:21:03;;;;;;;;;3.00;3.00;;;;;;;;5083768;28;61875;-80
2022/11/16 15:23:29;;;;;;;;;3.50;3.00;;;;;;;;5083774;27;61921;-80
2022/11/16 15:25:55;;;;;;;;;2.00;2.00;;;;;;;;5084411;27;61851;-80
2022/11/16 15:28:22;;;;;;;;;3.50;3.00;;;;;;;;5083685;28;61762;-80
2022/11/16 15:30:53;;;;;;;;;5.75;2.50;;;;;;;;5084772;28;61667;-79
2022/11/16 15:33:23;;;;;;;;;1.75;1.75;;;;;;;;5083209;28;61760;-80
2022/11/16 15:35:49;;;;;;;;;3.00;1.75;;;;;;;;5083904;28;61892;-79
2022/11/16 15:38:20;;;;;;;;;5.75;1.50;;;;;;;;5084042;27;61682;-80